createdAt,value
2018-06-21T00:01:07.742Z,59.40
2018-06-21T00:04:41.027Z,59.50
2018-06-21T00:08:14.308Z,59.60
2018-06-21T00:11:47.565Z,59.70
2018-06-21T00:15:20.831Z,59.90
2018-06-21T00:18:54.309Z,60.20
2018-06-21T00:22:28.473Z,60.70
2018-06-21T00:26:01.735Z,61.60
2018-06-21T00:29:35.043Z,62.20
2018-06-21T00:33:08.768Z,62.70
2018-06-21T00:36:42.532Z,62.90
2018-06-21T00:40:15.863Z,63.10
2018-06-21T00:43:49.136Z,63.20
2018-06-21T00:47:22.421Z,63.10
2018-06-21T00:54:28.636Z,63.10
2018-06-21T00:58:01.903Z,63.20
2018-06-21T01:01:35.143Z,63.20
2018-06-21T01:05:08.919Z,63.10
2018-06-21T01:08:42.826Z,64.10
2018-06-21T01:12:22.404Z,63.30
2018-06-21T01:15:55.652Z,63.40
2018-06-21T01:19:28.896Z,63.40
2018-06-21T01:23:02.114Z,63.60
2018-06-21T01:26:35.333Z,63.80
2018-06-21T01:30:08.528Z,63.80
2018-06-21T01:33:41.767Z,64.10
2018-06-21T01:37:15.018Z,64.60
2018-06-21T01:40:48.256Z,65.10
2018-06-21T01:44:21.480Z,65.50
2018-06-21T01:47:54.694Z,65.90
2018-06-21T01:55:01.011Z,66.40
2018-06-21T01:58:34.249Z,66.60
2018-06-21T02:02:07.503Z,66.60
2018-06-21T02:05:40.719Z,66.70
2018-06-21T02:09:14.112Z,66.70
2018-06-21T02:12:47.360Z,66.70
2018-06-21T02:16:20.604Z,66.60
2018-06-21T02:19:53.828Z,66.60
2018-06-21T02:23:27.075Z,66.60
2018-06-21T02:27:00.317Z,66.50
2018-06-21T02:30:34.080Z,66.60
2018-06-21T02:34:07.839Z,66.60
2018-06-21T02:37:41.072Z,67.20
2018-06-21T02:41:14.314Z,66.70
2018-06-21T02:44:47.537Z,67.40
2018-06-21T02:48:20.779Z,66.80
2018-06-21T02:51:54.063Z,66.80
2018-06-21T02:55:27.270Z,67.10
2018-06-21T02:59:00.519Z,67.90
2018-06-21T03:02:33.756Z,67.40
2018-06-21T03:06:07.502Z,68.20
2018-06-21T03:09:40.756Z,67.50
2018-06-21T03:13:13.977Z,67.70
2018-06-21T03:16:47.227Z,67.80
2018-06-21T03:20:20.452Z,67.90
2018-06-21T03:23:53.686Z,68.00
2018-06-21T03:27:26.908Z,68.10
2018-06-21T03:31:00.127Z,68.00
2018-06-21T03:34:33.348Z,68.20
2018-06-21T03:38:06.616Z,68.20
2018-06-21T03:45:13.060Z,68.40
2018-06-21T03:48:46.331Z,68.40
2018-06-21T03:52:19.696Z,68.50
2018-06-21T03:55:53.454Z,68.40
2018-06-21T03:59:26.686Z,68.30
2018-06-21T04:02:59.935Z,68.30
2018-06-21T04:06:33.416Z,68.20
2018-06-21T04:10:06.771Z,68.10
2018-06-21T04:13:40.047Z,68.20
2018-06-21T04:17:13.283Z,67.20
2018-06-21T04:20:46.538Z,66.80
2018-06-21T04:24:19.838Z,66.30
2018-06-21T04:27:53.096Z,65.90
2018-06-21T04:31:26.368Z,65.50
2018-06-21T04:34:59.604Z,65.20
2018-06-21T04:38:32.880Z,65.10
2018-06-21T04:42:06.199Z,64.80
2018-06-21T04:45:39.956Z,64.70
2018-06-21T04:49:13.196Z,64.90
2018-06-21T04:52:46.498Z,65.00
2018-06-21T04:56:19.735Z,65.10
2018-06-21T04:59:52.992Z,65.20
2018-06-21T05:03:26.219Z,65.10
2018-06-21T05:06:59.524Z,65.10
2018-06-21T05:10:32.771Z,65.00
2018-06-21T05:14:06.127Z,65.00
2018-06-21T05:17:39.379Z,65.00
2018-06-21T05:21:12.665Z,64.70
2018-06-21T05:24:45.935Z,64.60
2018-06-21T05:28:19.151Z,64.20
2018-06-21T05:31:52.378Z,63.90
2018-06-21T05:35:25.674Z,63.30
2018-06-21T05:38:58.921Z,62.90
2018-06-21T05:42:32.196Z,62.40
2018-06-21T05:46:05.405Z,62.10
2018-06-21T05:49:38.625Z,61.80
2018-06-21T05:53:11.867Z,61.70
2018-06-21T05:56:45.161Z,61.40
2018-06-21T06:00:18.359Z,61.20
2018-06-21T06:03:51.674Z,60.80
2018-06-21T06:07:24.928Z,60.30
2018-06-21T06:10:58.152Z,60.80
2018-06-21T06:14:31.447Z,59.90
2018-06-21T06:21:39.438Z,59.50
2018-06-21T06:25:12.679Z,59.30
2018-06-21T06:28:46.581Z,59.30
2018-06-21T06:32:19.715Z,59.10
2018-06-21T06:35:54.536Z,58.90
2018-06-21T06:39:27.798Z,58.70
2018-06-21T06:43:01.011Z,58.10
2018-06-21T06:50:07.479Z,57.60
2018-06-21T06:53:40.713Z,56.00
2018-06-21T07:00:47.480Z,56.50
2018-06-21T07:04:21.010Z,55.30
2018-06-21T07:07:54.249Z,54.70
2018-06-21T07:11:28.345Z,54.10
2018-06-21T07:22:08.170Z,51.90
2018-06-21T07:25:41.424Z,52.00
2018-06-21T07:29:14.659Z,51.50
2018-06-21T07:32:48.185Z,51.00
2018-06-21T07:36:21.422Z,50.10
2018-06-21T07:39:54.720Z,49.50
2018-06-21T07:43:27.948Z,48.80
2018-06-21T07:47:01.142Z,48.90
2018-06-21T07:50:34.369Z,49.10
2018-06-21T07:57:40.595Z,48.80
2018-06-21T08:01:13.823Z,47.60
2018-06-21T08:04:47.109Z,46.80
2018-06-21T08:08:20.351Z,46.40
2018-06-21T08:11:53.589Z,46.60
2018-06-21T08:15:26.836Z,47.00
2018-06-21T08:19:00.103Z,46.90
2018-06-21T08:22:33.387Z,46.40
2018-06-21T08:26:06.602Z,46.30
2018-06-21T08:29:39.835Z,45.60
2018-06-21T08:36:46.105Z,44.60
2018-06-21T08:40:19.411Z,44.40
2018-06-21T08:43:52.642Z,43.60
2018-06-21T08:54:31.929Z,42.80
2018-06-21T08:58:05.290Z,42.30
2018-06-21T09:01:38.521Z,42.00
2018-06-21T09:05:11.797Z,42.50
2018-06-21T09:08:45.054Z,43.00
2018-06-21T09:12:18.426Z,43.10
2018-06-21T09:22:57.668Z,44.40
2018-06-21T09:26:30.904Z,44.30
2018-06-21T09:30:04.245Z,44.80
2018-06-21T09:33:37.646Z,45.20
2018-06-21T09:37:10.886Z,43.80
2018-06-21T09:40:49.427Z,42.60
2018-06-21T09:44:29.791Z,41.70
2018-06-21T09:48:08.337Z,42.00
2018-06-21T09:58:47.609Z,42.40
2018-06-21T10:02:20.839Z,42.00
2018-06-21T10:05:54.098Z,41.40
2018-06-21T10:09:27.371Z,40.00
2018-06-21T10:13:00.626Z,39.70
2018-06-21T10:16:33.880Z,40.10
2018-06-21T10:20:07.264Z,40.40
2018-06-21T10:23:40.498Z,41.40
2018-06-21T10:27:13.765Z,42.00
2018-06-21T10:30:47.039Z,42.60
2018-06-21T10:34:20.275Z,42.70
2018-06-21T10:37:53.520Z,42.60
2018-06-21T10:41:26.784Z,42.30
2018-06-21T10:45:00.049Z,38.10
2018-06-21T10:48:33.289Z,35.00
2018-06-21T10:52:06.638Z,33.10
2018-06-21T10:55:39.869Z,33.40
2018-06-21T10:59:13.121Z,34.90
2018-06-21T11:02:46.336Z,34.60
2018-06-21T11:06:19.579Z,35.00
2018-06-21T11:09:52.803Z,35.40
2018-06-21T11:13:26.044Z,35.40
2018-06-21T11:16:59.293Z,36.80
2018-06-21T11:20:32.811Z,38.50
2018-06-21T11:24:06.154Z,39.30
2018-06-21T11:27:39.514Z,40.00
2018-06-21T11:31:12.693Z,39.80
2018-06-21T11:34:45.921Z,39.00
2018-06-21T11:38:19.164Z,39.10
2018-06-21T11:41:52.516Z,39.40
2018-06-21T11:45:25.762Z,39.50
2018-06-21T11:48:58.995Z,39.70
2018-06-21T11:52:32.223Z,38.80
2018-06-21T11:59:38.861Z,38.20
2018-06-21T12:03:12.104Z,36.90
2018-06-21T12:06:45.347Z,36.50
2018-06-21T12:10:18.560Z,34.60
2018-06-21T12:13:51.790Z,32.60
2018-06-21T12:17:25.065Z,32.20
2018-06-21T12:20:58.297Z,32.70
2018-06-21T12:24:31.547Z,33.00
2018-06-21T12:28:04.863Z,32.20
2018-06-21T12:31:38.096Z,32.40
2018-06-21T12:35:11.337Z,32.60
2018-06-21T12:42:17.554Z,33.90
2018-06-21T12:45:50.805Z,34.30
2018-06-21T12:49:24.072Z,35.10
2018-06-21T12:52:57.268Z,34.80
2018-06-21T12:56:30.539Z,35.30
2018-06-21T13:00:04.144Z,36.10
2018-06-21T13:03:37.402Z,36.40
2018-06-21T13:07:11.449Z,36.50
2018-06-21T13:10:56.020Z,36.40
2018-06-21T13:14:29.264Z,36.40
2018-06-21T13:18:02.526Z,36.80
2018-06-21T13:21:35.810Z,37.20
2018-06-21T13:28:42.968Z,38.00
2018-06-21T13:32:16.249Z,39.10
2018-06-21T13:35:49.487Z,38.80
2018-06-21T13:39:22.792Z,38.40
2018-06-21T13:42:56.038Z,39.00
2018-06-21T13:46:29.271Z,39.30
2018-06-21T13:50:02.573Z,39.60
2018-06-21T13:53:35.783Z,40.40
2018-06-21T13:57:09.004Z,42.80
2018-06-21T14:00:42.264Z,44.30
2018-06-21T14:04:15.478Z,45.10
2018-06-21T14:07:48.785Z,45.40
2018-06-21T14:11:22.042Z,45.90
2018-06-21T14:14:55.268Z,45.60
2018-06-21T14:18:28.491Z,44.70
2018-06-21T14:22:01.736Z,44.20
2018-06-21T14:25:35.195Z,43.70
2018-06-21T14:29:08.439Z,43.00
2018-06-21T14:36:14.673Z,41.30
2018-06-21T14:39:48.247Z,41.10
2018-06-21T14:43:21.549Z,41.30
2018-06-21T14:46:54.935Z,41.90
2018-06-21T14:54:01.200Z,42.80
2018-06-21T14:57:34.446Z,41.90
2018-06-21T15:01:07.672Z,41.50
2018-06-21T15:04:40.932Z,42.00
2018-06-21T15:11:47.192Z,42.70
2018-06-21T15:15:20.503Z,42.70
2018-06-21T15:18:53.755Z,42.90
2018-06-21T15:22:26.967Z,43.40
2018-06-21T15:26:00.221Z,43.70
2018-06-21T15:33:06.448Z,43.40
2018-06-21T15:36:39.737Z,43.50
2018-06-21T15:40:13.034Z,43.70
2018-06-21T15:43:46.260Z,44.40
2018-06-21T15:47:19.524Z,44.80
2018-06-21T15:50:53.094Z,44.90
2018-06-21T15:54:26.321Z,45.30
2018-06-21T15:57:59.675Z,45.60
2018-06-21T16:01:32.928Z,46.00
2018-06-21T16:08:39.133Z,46.40
2018-06-21T16:12:12.444Z,46.50
2018-06-21T16:15:47.207Z,46.80
2018-06-21T16:19:20.427Z,47.00
2018-06-21T16:22:53.743Z,45.70
2018-06-21T16:26:27.568Z,44.00
2018-06-21T16:33:56.409Z,43.20
2018-06-21T16:43:22.144Z,43.50
2018-06-21T16:46:55.493Z,43.10
2018-06-21T16:50:33.088Z,40.60
2018-06-21T16:54:06.569Z,40.20
2018-06-21T16:57:39.767Z,40.00
2018-06-21T17:01:13.016Z,39.90
2018-06-21T17:04:46.232Z,38.70
2018-06-21T17:08:19.486Z,38.50
2018-06-21T17:11:52.777Z,37.00
2018-06-21T17:15:26.019Z,36.20
2018-06-21T17:18:59.292Z,36.00
2018-06-21T17:22:32.526Z,35.60
2018-06-21T17:26:05.760Z,35.40
2018-06-21T17:29:39.014Z,35.60
2018-06-21T17:33:12.297Z,36.00
2018-06-21T17:36:45.566Z,36.00
2018-06-21T17:40:18.816Z,34.90
2018-06-21T17:43:52.066Z,34.60
2018-06-21T17:50:58.395Z,33.10
2018-06-21T17:54:31.647Z,32.80
2018-06-21T17:58:04.984Z,32.90
2018-06-21T18:01:38.171Z,32.10
2018-06-21T18:05:11.509Z,32.80
2018-06-21T18:12:20.514Z,31.10
2018-06-21T18:15:53.803Z,32.00
2018-06-21T18:19:27.058Z,32.40
2018-06-21T18:23:00.401Z,32.80
2018-06-21T18:26:33.639Z,32.90
2018-06-21T18:30:06.896Z,33.10
2018-06-21T18:33:40.163Z,33.30
2018-06-21T18:37:13.475Z,33.60
2018-06-21T18:40:46.707Z,33.40
2018-06-21T18:44:19.937Z,33.20
2018-06-21T18:47:53.429Z,33.20
2018-06-21T18:54:59.668Z,33.10
2018-06-21T18:58:32.891Z,32.50
2018-06-21T19:02:06.115Z,31.80
2018-06-21T19:05:39.419Z,32.10
2018-06-21T19:12:51.071Z,31.70
2018-06-21T19:16:24.341Z,31.80
2018-06-21T19:19:57.723Z,32.00
2018-06-21T19:23:31.023Z,32.10
2018-06-21T19:27:04.292Z,31.80
2018-06-21T19:30:37.595Z,31.90
2018-06-21T19:34:10.833Z,31.80
2018-06-21T19:37:44.080Z,31.10
2018-06-21T19:41:17.317Z,30.90
2018-06-21T19:44:50.556Z,30.60
2018-06-21T19:48:23.813Z,30.60
2018-06-21T19:51:57.084Z,30.80
2018-06-21T19:55:30.388Z,31.00
2018-06-21T19:59:03.777Z,31.00
2018-06-21T20:02:42.196Z,31.00
2018-06-21T20:06:15.467Z,31.10
2018-06-21T20:09:48.821Z,31.40
2018-06-21T20:13:22.092Z,31.50
2018-06-21T20:16:55.504Z,31.60
2018-06-21T20:20:33.909Z,31.90
2018-06-21T20:24:07.244Z,32.10
2018-06-21T20:27:40.494Z,31.90
2018-06-21T20:34:48.303Z,31.90
2018-06-21T20:38:21.628Z,32.20
2018-06-21T20:41:55.054Z,32.40
2018-06-21T20:45:28.294Z,32.40
2018-06-21T20:49:01.581Z,32.40
2018-06-21T20:52:34.837Z,32.40
2018-06-21T20:56:08.216Z,32.70
2018-06-21T20:59:41.660Z,33.00
2018-06-21T21:03:14.891Z,33.10
2018-06-21T21:06:48.139Z,33.30
2018-06-21T21:13:54.715Z,34.20
2018-06-21T21:17:28.107Z,34.60
2018-06-21T21:21:01.423Z,34.70
2018-06-21T21:24:34.968Z,35.00
2018-06-21T21:28:08.195Z,35.30
2018-06-21T21:31:41.581Z,35.30
2018-06-21T21:35:14.733Z,35.60
2018-06-21T21:38:48.178Z,35.80
2018-06-21T21:42:21.786Z,36.00
2018-06-21T21:45:55.028Z,36.10
2018-06-21T21:49:30.301Z,36.30
2018-06-21T21:53:03.602Z,36.40
2018-06-21T21:56:36.898Z,36.40
2018-06-21T22:00:26.655Z,36.70
2018-06-21T22:03:59.903Z,36.50
2018-06-21T22:07:33.189Z,36.60
2018-06-21T22:11:06.479Z,36.80
2018-06-21T22:14:39.750Z,37.00
2018-06-21T22:18:13.015Z,36.90
2018-06-21T22:21:46.292Z,37.00
2018-06-21T22:25:20.461Z,37.00
2018-06-21T22:28:54.146Z,37.00
2018-06-21T22:32:27.464Z,37.10
2018-06-21T22:36:00.684Z,37.10
2018-06-21T22:39:34.210Z,37.00
2018-06-21T22:43:07.481Z,37.00
2018-06-21T22:46:40.717Z,37.00
2018-06-21T22:50:13.988Z,36.90
2018-06-21T22:53:47.228Z,36.90
2018-06-21T22:57:21.102Z,37.10
2018-06-21T23:00:54.359Z,37.30
2018-06-21T23:08:00.600Z,37.60
2018-06-21T23:11:33.867Z,37.90
2018-06-21T23:15:07.214Z,38.10
2018-06-21T23:18:51.647Z,38.30
2018-06-21T23:22:24.876Z,38.60
2018-06-21T23:25:58.143Z,38.70
2018-06-21T23:29:31.387Z,39.00
2018-06-21T23:33:04.636Z,39.30
2018-06-21T23:36:37.870Z,39.60
2018-06-21T23:40:11.216Z,39.80
2018-06-21T23:47:17.486Z,40.40
2018-06-21T23:50:50.751Z,40.50
2018-06-21T23:54:24.003Z,40.70
